DKH1116 ZSQD-ZSPD
Flight info
| Callsign | DKH1116 |
|---|---|
| Flight time | 1h 12m |
| Altitude | 24600 |
| Route | LAT81D LATUX W108 MATNU W115 PINOT |
| Aircraft | A320/M-SDE3FGHIRWY/LB1 |
Departure
| Time | 2026-04-19 01:54 |
|---|---|
| Airport | Qingdao Jiaodong International Airport (ZSQD) |
Arrival
| Time | 2026-04-19 03:06 |
|---|---|
| Airport | Shanghai Pudong International Airport (ZSPD) |
| Time | Latitude | Longitude | Altitude | Speed | Heading |
|---|---|---|---|---|---|
| 2026-04-19 01:21 | 36.36291 | 120.09497 | 36 ft | 0 kts | 72° |
| 2026-04-19 01:44 | 36.36290 | 120.09494 | 36 ft | 2 kts | 73° |
| 2026-04-19 01:44 | 36.36286 | 120.09476 | 36 ft | 2 kts | 90° |
| 2026-04-19 01:45 | 36.36288 | 120.09457 | 36 ft | 2 kts | 107° |
| 2026-04-19 01:45 | 36.36295 | 120.09440 | 36 ft | 2 kts | 125° |
| 2026-04-19 01:45 | 36.36305 | 120.09425 | 35 ft | 2 kts | 143° |
| 2026-04-19 01:45 | 36.36317 | 120.09417 | 35 ft | 1 kts | 160° |
| 2026-04-19 01:46 | 36.36324 | 120.09415 | 35 ft | 1 kts | 165° |
| 2026-04-19 01:46 | 36.36326 | 120.09414 | 35 ft | 0 kts | 164° |
| 2026-04-19 01:46 | 36.36325 | 120.09414 | 35 ft | 0 kts | 164° |
| 2026-04-19 01:48 | 36.36320 | 120.09416 | 35 ft | 1 kts | 164° |
| 2026-04-19 01:48 | 36.36297 | 120.09424 | 35 ft | 5 kts | 165° |
| 2026-04-19 01:48 | 36.36251 | 120.09448 | 36 ft | 7 kts | 138° |
| 2026-04-19 01:49 | 36.36237 | 120.09520 | 37 ft | 11 kts | 76° |
| 2026-04-19 01:49 | 36.36261 | 120.09621 | 36 ft | 13 kts | 72° |
| 2026-04-19 01:49 | 36.36290 | 120.09734 | 36 ft | 14 kts | 73° |
| 2026-04-19 01:49 | 36.36254 | 120.09830 | 36 ft | 14 kts | 161° |
| 2026-04-19 01:50 | 36.36163 | 120.09866 | 38 ft | 13 kts | 162° |
| 2026-04-19 01:50 | 36.36062 | 120.09906 | 37 ft | 16 kts | 162° |
| 2026-04-19 01:50 | 36.35950 | 120.09949 | 36 ft | 17 kts | 162° |
| 2026-04-19 01:50 | 36.35831 | 120.09997 | 35 ft | 18 kts | 162° |
| 2026-04-19 01:51 | 36.35702 | 120.10048 | 32 ft | 20 kts | 161° |
| 2026-04-19 01:51 | 36.35558 | 120.10105 | 29 ft | 22 kts | 162° |
| 2026-04-19 01:51 | 36.35408 | 120.10166 | 28 ft | 22 kts | 163° |
| 2026-04-19 01:51 | 36.35256 | 120.10224 | 27 ft | 23 kts | 162° |
| 2026-04-19 01:52 | 36.35099 | 120.10285 | 25 ft | 23 kts | 162° |
| 2026-04-19 01:52 | 36.34975 | 120.10359 | 25 ft | 16 kts | 108° |
| 2026-04-19 01:52 | 36.35025 | 120.10476 | 25 ft | 16 kts | 32° |
| 2026-04-19 01:52 | 36.35132 | 120.10497 | 25 ft | 12 kts | 342° |
| 2026-04-19 01:53 | 36.35135 | 120.10496 | 25 ft | 2 kts | 342° |
| 2026-04-19 01:53 | 36.35391 | 120.10394 | 26 ft | 75 kts | 341° |
| 2026-04-19 01:53 | 36.36104 | 120.10113 | 36 ft | 136 kts | 342° |
| 2026-04-19 01:53 | 36.37165 | 120.09695 | 192 ft | 171 kts | 340° |
| 2026-04-19 01:54 | 36.38298 | 120.09187 | 660 ft | 180 kts | 337° |
| 2026-04-19 01:54 | 36.39547 | 120.08622 | 1099 ft | 200 kts | 340° |
| 2026-04-19 01:54 | 36.40921 | 120.08106 | 1587 ft | 218 kts | 343° |
| 2026-04-19 01:54 | 36.42462 | 120.07522 | 1896 ft | 241 kts | 340° |
| 2026-04-19 01:55 | 36.44111 | 120.06874 | 2322 ft | 258 kts | 342° |
| 2026-04-19 01:55 | 36.45863 | 120.06233 | 2984 ft | 265 kts | 342° |
| 2026-04-19 01:55 | 36.47647 | 120.05675 | 3719 ft | 270 kts | 355° |
| 2026-04-19 01:55 | 36.49512 | 120.06004 | 4411 ft | 276 kts | 25° |
| 2026-04-19 01:56 | 36.51025 | 120.07420 | 5126 ft | 278 kts | 54° |
| 2026-04-19 01:56 | 36.51844 | 120.09551 | 5876 ft | 278 kts | 74° |
| 2026-04-19 01:56 | 36.52397 | 120.11865 | 6675 ft | 281 kts | 76° |
| 2026-04-19 01:56 | 36.52946 | 120.14178 | 7435 ft | 283 kts | 75° |
| 2026-04-19 01:57 | 36.53509 | 120.16509 | 8150 ft | 286 kts | 73° |
| 2026-04-19 01:57 | 36.54118 | 120.18874 | 8876 ft | 288 kts | 74° |
| 2026-04-19 01:57 | 36.54659 | 120.21263 | 9582 ft | 289 kts | 84° |
| 2026-04-19 01:57 | 36.54497 | 120.23702 | 10226 ft | 288 kts | 109° |
| 2026-04-19 01:58 | 36.53524 | 120.25846 | 10843 ft | 290 kts | 132° |
| 2026-04-19 01:58 | 36.51875 | 120.27395 | 11179 ft | 305 kts | 155° |
| 2026-04-19 01:58 | 36.49812 | 120.28248 | 11531 ft | 319 kts | 160° |
| 2026-04-19 01:58 | 36.47638 | 120.29079 | 11807 ft | 335 kts | 161° |
| 2026-04-19 01:59 | 36.45370 | 120.29948 | 12259 ft | 345 kts | 161° |
| 2026-04-19 01:59 | 36.43092 | 120.30825 | 12888 ft | 347 kts | 161° |
| 2026-04-19 01:59 | 36.40772 | 120.31705 | 13485 ft | 351 kts | 160° |
| 2026-04-19 01:59 | 36.38437 | 120.32614 | 14049 ft | 354 kts | 161° |
| 2026-04-19 02:00 | 36.36066 | 120.33541 | 14602 ft | 358 kts | 161° |
| 2026-04-19 02:00 | 36.33672 | 120.34461 | 15149 ft | 361 kts | 160° |
| 2026-04-19 02:00 | 36.31250 | 120.35410 | 15702 ft | 365 kts | 160° |
| 2026-04-19 02:00 | 36.28800 | 120.36374 | 16263 ft | 368 kts | 160° |
| 2026-04-19 02:01 | 36.26364 | 120.37329 | 16811 ft | 371 kts | 160° |
| 2026-04-19 02:01 | 36.23901 | 120.38292 | 17351 ft | 374 kts | 160° |
| 2026-04-19 02:01 | 36.21389 | 120.39270 | 17886 ft | 377 kts | 160° |
| 2026-04-19 02:01 | 36.18891 | 120.40241 | 18400 ft | 380 kts | 160° |
| 2026-04-19 02:02 | 36.16365 | 120.41222 | 18905 ft | 382 kts | 160° |
| 2026-04-19 02:02 | 36.13817 | 120.42208 | 19351 ft | 386 kts | 160° |
| 2026-04-19 02:02 | 36.11236 | 120.43207 | 19782 ft | 389 kts | 160° |
| 2026-04-19 02:02 | 36.08648 | 120.44207 | 20199 ft | 392 kts | 160° |
| 2026-04-19 02:03 | 36.06016 | 120.45226 | 20601 ft | 397 kts | 160° |
| 2026-04-19 02:03 | 36.03373 | 120.46248 | 20996 ft | 400 kts | 160° |
| 2026-04-19 02:03 | 36.00711 | 120.47277 | 21381 ft | 405 kts | 160° |
| 2026-04-19 02:03 | 35.98018 | 120.48322 | 21771 ft | 409 kts | 160° |
| 2026-04-19 02:04 | 35.95332 | 120.49502 | 22202 ft | 411 kts | 156° |
| 2026-04-19 02:04 | 35.92693 | 120.50883 | 22711 ft | 410 kts | 154° |
| 2026-04-19 02:04 | 35.90104 | 120.52303 | 23188 ft | 411 kts | 154° |
| 2026-04-19 02:04 | 35.87498 | 120.53738 | 23564 ft | 414 kts | 154° |
| 2026-04-19 02:05 | 35.84841 | 120.55197 | 23911 ft | 418 kts | 154° |
| 2026-04-19 02:05 | 35.82190 | 120.56651 | 24302 ft | 421 kts | 154° |
| 2026-04-19 02:05 | 35.79499 | 120.58125 | 24634 ft | 424 kts | 154° |
| 2026-04-19 02:05 | 35.76782 | 120.59612 | 24717 ft | 426 kts | 154° |
| 2026-04-19 02:06 | 35.74062 | 120.61114 | 24752 ft | 426 kts | 153° |
| 2026-04-19 02:06 | 35.71435 | 120.62745 | 24736 ft | 425 kts | 149° |
| 2026-04-19 02:06 | 35.68823 | 120.64504 | 24727 ft | 425 kts | 149° |
| 2026-04-19 02:06 | 35.66249 | 120.66252 | 24723 ft | 424 kts | 149° |
| 2026-04-19 02:07 | 35.63644 | 120.68021 | 24721 ft | 424 kts | 149° |
| 2026-04-19 02:07 | 35.61081 | 120.69757 | 24678 ft | 424 kts | 149° |
| 2026-04-19 02:07 | 35.58483 | 120.71513 | 24655 ft | 423 kts | 149° |
| 2026-04-19 02:07 | 35.55913 | 120.73247 | 24643 ft | 423 kts | 149° |
| 2026-04-19 02:08 | 35.53317 | 120.74998 | 24636 ft | 423 kts | 149° |
| 2026-04-19 02:08 | 35.50752 | 120.76725 | 24642 ft | 423 kts | 150° |
| 2026-04-19 02:08 | 35.48106 | 120.78388 | 24644 ft | 424 kts | 153° |
| 2026-04-19 02:08 | 35.45404 | 120.79833 | 24646 ft | 424 kts | 156° |
| 2026-04-19 02:09 | 35.42693 | 120.81180 | 24646 ft | 424 kts | 157° |
| 2026-04-19 02:09 | 35.39955 | 120.82528 | 24649 ft | 423 kts | 157° |
| 2026-04-19 02:09 | 35.37186 | 120.83893 | 24651 ft | 423 kts | 157° |
| 2026-04-19 02:09 | 35.34485 | 120.85225 | 24651 ft | 423 kts | 157° |
| 2026-04-19 02:10 | 35.31752 | 120.86575 | 24652 ft | 423 kts | 157° |
| 2026-04-19 02:10 | 35.29018 | 120.87925 | 24650 ft | 423 kts | 157° |
| 2026-04-19 02:10 | 35.26281 | 120.89277 | 24649 ft | 422 kts | 157° |
| 2026-04-19 02:10 | 35.23572 | 120.90614 | 24649 ft | 422 kts | 157° |
| 2026-04-19 02:11 | 35.20845 | 120.91959 | 24648 ft | 422 kts | 157° |
| 2026-04-19 02:11 | 35.18100 | 120.93312 | 24648 ft | 422 kts | 157° |
| 2026-04-19 02:11 | 35.15369 | 120.94657 | 24647 ft | 422 kts | 157° |
| 2026-04-19 02:11 | 35.12659 | 120.96001 | 24647 ft | 422 kts | 157° |
| 2026-04-19 02:12 | 35.09947 | 120.97349 | 24646 ft | 422 kts | 157° |
| 2026-04-19 02:12 | 35.07212 | 120.98709 | 24646 ft | 422 kts | 157° |
| 2026-04-19 02:12 | 35.04485 | 121.00063 | 24645 ft | 422 kts | 157° |
| 2026-04-19 02:12 | 35.01760 | 121.01415 | 24645 ft | 422 kts | 157° |
| 2026-04-19 02:13 | 34.99049 | 121.02759 | 24644 ft | 421 kts | 157° |
| 2026-04-19 02:13 | 34.96341 | 121.04100 | 24644 ft | 421 kts | 157° |
| 2026-04-19 02:13 | 34.93625 | 121.05445 | 24644 ft | 421 kts | 157° |
| 2026-04-19 02:13 | 34.90900 | 121.06793 | 24643 ft | 421 kts | 157° |
| 2026-04-19 02:14 | 34.88175 | 121.08140 | 24642 ft | 421 kts | 157° |
| 2026-04-19 02:14 | 34.85440 | 121.09492 | 24642 ft | 421 kts | 157° |
| 2026-04-19 02:14 | 34.82726 | 121.10832 | 24642 ft | 421 kts | 157° |
| 2026-04-19 02:14 | 34.80029 | 121.12161 | 24641 ft | 421 kts | 157° |
| 2026-04-19 02:15 | 34.77296 | 121.13509 | 24641 ft | 420 kts | 157° |
| 2026-04-19 02:15 | 34.74597 | 121.14840 | 24641 ft | 420 kts | 157° |
| 2026-04-19 02:15 | 34.71875 | 121.16180 | 24640 ft | 420 kts | 157° |
| 2026-04-19 02:15 | 34.69163 | 121.17515 | 24640 ft | 420 kts | 157° |
| 2026-04-19 02:16 | 34.66488 | 121.18831 | 24639 ft | 420 kts | 157° |
| 2026-04-19 02:16 | 34.63753 | 121.20174 | 24639 ft | 420 kts | 157° |
| 2026-04-19 02:16 | 34.61047 | 121.21502 | 24638 ft | 419 kts | 157° |
| 2026-04-19 02:16 | 34.58339 | 121.22831 | 24638 ft | 419 kts | 157° |
| 2026-04-19 02:17 | 34.55663 | 121.24142 | 24637 ft | 419 kts | 157° |
| 2026-04-19 02:17 | 34.52959 | 121.25468 | 24637 ft | 419 kts | 157° |
| 2026-04-19 02:17 | 34.50265 | 121.26785 | 24636 ft | 418 kts | 157° |
| 2026-04-19 02:17 | 34.47549 | 121.28111 | 24636 ft | 418 kts | 157° |
| 2026-04-19 02:18 | 34.44878 | 121.29415 | 24636 ft | 417 kts | 157° |
| 2026-04-19 02:18 | 34.42164 | 121.30739 | 24635 ft | 417 kts | 157° |
| 2026-04-19 02:18 | 34.39483 | 121.32046 | 24635 ft | 417 kts | 157° |
| 2026-04-19 02:18 | 34.36795 | 121.33358 | 24634 ft | 416 kts | 157° |
| 2026-04-19 02:19 | 34.34134 | 121.34655 | 24634 ft | 416 kts | 157° |
| 2026-04-19 02:19 | 34.31424 | 121.35975 | 24633 ft | 416 kts | 157° |
| 2026-04-19 02:19 | 34.28736 | 121.37283 | 24632 ft | 415 kts | 157° |
| 2026-04-19 02:20 | 34.23383 | 121.39887 | 24629 ft | 416 kts | 158° |
| 2026-04-19 02:20 | 34.20696 | 121.41191 | 24627 ft | 416 kts | 158° |
| 2026-04-19 02:20 | 34.18009 | 121.42496 | 24624 ft | 416 kts | 158° |
| 2026-04-19 02:20 | 34.15363 | 121.43780 | 24621 ft | 415 kts | 158° |
| 2026-04-19 02:21 | 34.12651 | 121.45094 | 24617 ft | 415 kts | 158° |
| 2026-04-19 02:21 | 34.09994 | 121.46382 | 24614 ft | 414 kts | 158° |
| 2026-04-19 02:21 | 34.07323 | 121.47675 | 24612 ft | 414 kts | 158° |
| 2026-04-19 02:21 | 34.04636 | 121.48975 | 24611 ft | 413 kts | 158° |
| 2026-04-19 02:22 | 34.02000 | 121.50249 | 24610 ft | 413 kts | 158° |
| 2026-04-19 02:22 | 33.99322 | 121.51543 | 24609 ft | 412 kts | 158° |
| 2026-04-19 02:22 | 33.96672 | 121.52823 | 24609 ft | 412 kts | 158° |
| 2026-04-19 02:22 | 33.93987 | 121.54119 | 24609 ft | 412 kts | 158° |
| 2026-04-19 02:23 | 33.91336 | 121.55399 | 24609 ft | 412 kts | 158° |
| 2026-04-19 02:23 | 33.88662 | 121.56688 | 24607 ft | 412 kts | 158° |
| 2026-04-19 02:23 | 33.85989 | 121.57976 | 24606 ft | 412 kts | 158° |
| 2026-04-19 02:23 | 33.83323 | 121.59260 | 24605 ft | 412 kts | 158° |
| 2026-04-19 02:24 | 33.80658 | 121.60542 | 24605 ft | 412 kts | 158° |
| 2026-04-19 02:24 | 33.78010 | 121.61814 | 24607 ft | 411 kts | 158° |
| 2026-04-19 02:24 | 33.75378 | 121.63078 | 24608 ft | 411 kts | 158° |
| 2026-04-19 02:24 | 33.72690 | 121.64368 | 24609 ft | 411 kts | 158° |
| 2026-04-19 02:25 | 33.70061 | 121.65637 | 24609 ft | 411 kts | 158° |
| 2026-04-19 02:25 | 33.67376 | 121.66953 | 24609 ft | 411 kts | 158° |
| 2026-04-19 02:25 | 33.64752 | 121.68241 | 24608 ft | 411 kts | 158° |
| 2026-04-19 02:25 | 33.62087 | 121.69548 | 24608 ft | 411 kts | 158° |
| 2026-04-19 02:26 | 33.59434 | 121.70847 | 24608 ft | 411 kts | 158° |
| 2026-04-19 02:26 | 33.56785 | 121.72143 | 24607 ft | 411 kts | 158° |
| 2026-04-19 02:26 | 33.54121 | 121.73444 | 24607 ft | 411 kts | 158° |
| 2026-04-19 02:26 | 33.51465 | 121.74743 | 24607 ft | 411 kts | 158° |
| 2026-04-19 02:27 | 33.48827 | 121.76032 | 24607 ft | 411 kts | 158° |
| 2026-04-19 02:27 | 33.46182 | 121.77322 | 24606 ft | 411 kts | 158° |
| 2026-04-19 02:27 | 33.43519 | 121.78622 | 24606 ft | 412 kts | 158° |
| 2026-04-19 02:27 | 33.40855 | 121.79922 | 24605 ft | 412 kts | 158° |
| 2026-04-19 02:28 | 33.38213 | 121.81209 | 24604 ft | 412 kts | 158° |
| 2026-04-19 02:28 | 33.35564 | 121.82499 | 24603 ft | 412 kts | 158° |
| 2026-04-19 02:28 | 33.32911 | 121.83791 | 24602 ft | 412 kts | 158° |
| 2026-04-19 02:28 | 33.30226 | 121.85096 | 24602 ft | 413 kts | 158° |
| 2026-04-19 02:29 | 33.27554 | 121.86395 | 24601 ft | 413 kts | 158° |
| 2026-04-19 02:29 | 33.24916 | 121.87676 | 24601 ft | 413 kts | 158° |
| 2026-04-19 02:29 | 33.22235 | 121.88976 | 24600 ft | 413 kts | 158° |
| 2026-04-19 02:29 | 33.19560 | 121.90274 | 24600 ft | 412 kts | 158° |
| 2026-04-19 02:30 | 33.16888 | 121.91569 | 24600 ft | 412 kts | 158° |
| 2026-04-19 02:30 | 33.14241 | 121.92851 | 24600 ft | 412 kts | 158° |
| 2026-04-19 02:30 | 33.11583 | 121.94138 | 24600 ft | 412 kts | 158° |
| 2026-04-19 02:30 | 33.08920 | 121.95425 | 24600 ft | 412 kts | 158° |
| 2026-04-19 02:31 | 33.06258 | 121.96712 | 24599 ft | 413 kts | 158° |
| 2026-04-19 02:31 | 33.03606 | 121.97993 | 24599 ft | 413 kts | 158° |
| 2026-04-19 02:31 | 33.00920 | 121.99290 | 24599 ft | 413 kts | 158° |
| 2026-04-19 02:31 | 32.98244 | 122.00581 | 24599 ft | 413 kts | 158° |
| 2026-04-19 02:32 | 32.95608 | 122.01852 | 24598 ft | 413 kts | 158° |
| 2026-04-19 02:32 | 32.92928 | 122.03143 | 24597 ft | 413 kts | 158° |
| 2026-04-19 02:32 | 32.90241 | 122.04439 | 24597 ft | 412 kts | 159° |
| 2026-04-19 02:32 | 32.87582 | 122.05718 | 24596 ft | 411 kts | 159° |
| 2026-04-19 02:33 | 32.84935 | 122.06992 | 24597 ft | 411 kts | 159° |
| 2026-04-19 02:33 | 32.82288 | 122.08263 | 24597 ft | 411 kts | 159° |
| 2026-04-19 02:33 | 32.79633 | 122.09538 | 24598 ft | 411 kts | 159° |
| 2026-04-19 02:33 | 32.76978 | 122.10812 | 24598 ft | 411 kts | 159° |
| 2026-04-19 02:34 | 32.74331 | 122.12081 | 24597 ft | 410 kts | 159° |
| 2026-04-19 02:34 | 32.71681 | 122.13352 | 24597 ft | 410 kts | 159° |
| 2026-04-19 02:34 | 32.69042 | 122.14617 | 24597 ft | 410 kts | 159° |
| 2026-04-19 02:34 | 32.66376 | 122.15894 | 24598 ft | 410 kts | 159° |
| 2026-04-19 02:35 | 32.63740 | 122.17155 | 24598 ft | 411 kts | 159° |
| 2026-04-19 02:35 | 32.61079 | 122.18426 | 24598 ft | 411 kts | 159° |
| 2026-04-19 02:35 | 32.58411 | 122.19701 | 24598 ft | 411 kts | 159° |
| 2026-04-19 02:35 | 32.55765 | 122.20965 | 24598 ft | 411 kts | 159° |
| 2026-04-19 02:36 | 32.53119 | 122.22227 | 24598 ft | 411 kts | 159° |
| 2026-04-19 02:36 | 32.50447 | 122.23501 | 24598 ft | 412 kts | 159° |
| 2026-04-19 02:36 | 32.47794 | 122.24766 | 24598 ft | 412 kts | 159° |
| 2026-04-19 02:36 | 32.45137 | 122.26031 | 24598 ft | 412 kts | 160° |
| 2026-04-19 02:37 | 32.42479 | 122.27291 | 24598 ft | 412 kts | 160° |
| 2026-04-19 02:37 | 32.39833 | 122.28546 | 24598 ft | 412 kts | 160° |
| 2026-04-19 02:37 | 32.37161 | 122.29813 | 24598 ft | 412 kts | 159° |
| 2026-04-19 02:37 | 32.34481 | 122.31084 | 24598 ft | 412 kts | 159° |
| 2026-04-19 02:38 | 32.31837 | 122.32338 | 24598 ft | 412 kts | 159° |
| 2026-04-19 02:38 | 32.29177 | 122.33599 | 24598 ft | 412 kts | 159° |
| 2026-04-19 02:38 | 32.26521 | 122.34859 | 24598 ft | 412 kts | 159° |
| 2026-04-19 02:38 | 32.23832 | 122.36134 | 24598 ft | 412 kts | 159° |
| 2026-04-19 02:39 | 32.21202 | 122.37380 | 24598 ft | 412 kts | 159° |
| 2026-04-19 02:39 | 32.18510 | 122.38654 | 24598 ft | 412 kts | 159° |
| 2026-04-19 02:39 | 32.15862 | 122.39906 | 24598 ft | 412 kts | 159° |
| 2026-04-19 02:39 | 32.13187 | 122.41170 | 24598 ft | 411 kts | 159° |
| 2026-04-19 02:40 | 32.10537 | 122.42422 | 24598 ft | 412 kts | 159° |
| 2026-04-19 02:40 | 32.07904 | 122.43665 | 24599 ft | 412 kts | 159° |
| 2026-04-19 02:40 | 32.05228 | 122.44928 | 24599 ft | 411 kts | 159° |
| 2026-04-19 02:40 | 32.02548 | 122.46191 | 24599 ft | 411 kts | 159° |
| 2026-04-19 02:41 | 31.99897 | 122.47440 | 24599 ft | 411 kts | 159° |
| 2026-04-19 02:41 | 31.97241 | 122.48691 | 24599 ft | 411 kts | 159° |
| 2026-04-19 02:41 | 31.94590 | 122.49938 | 24598 ft | 411 kts | 159° |
| 2026-04-19 02:41 | 31.91913 | 122.51199 | 24598 ft | 412 kts | 160° |
| 2026-04-19 02:42 | 31.89267 | 122.52444 | 24598 ft | 412 kts | 160° |
| 2026-04-19 02:42 | 31.86614 | 122.53690 | 24594 ft | 412 kts | 160° |
| 2026-04-19 02:42 | 31.83943 | 122.54945 | 24593 ft | 412 kts | 160° |
| 2026-04-19 02:42 | 31.81275 | 122.56197 | 24591 ft | 411 kts | 160° |
| 2026-04-19 02:43 | 31.78622 | 122.57441 | 24591 ft | 411 kts | 160° |
| 2026-04-19 02:43 | 31.75978 | 122.58680 | 24594 ft | 411 kts | 160° |
| 2026-04-19 02:43 | 31.73304 | 122.59930 | 24596 ft | 410 kts | 160° |
| 2026-04-19 02:43 | 31.70669 | 122.61163 | 24597 ft | 411 kts | 160° |
| 2026-04-19 02:44 | 31.67982 | 122.62310 | 24588 ft | 408 kts | 169° |
| 2026-04-19 02:44 | 31.65205 | 122.62472 | 24583 ft | 402 kts | 192° |
| 2026-04-19 02:44 | 31.62616 | 122.61359 | 24592 ft | 396 kts | 214° |
| 2026-04-19 02:44 | 31.60438 | 122.59354 | 24604 ft | 395 kts | 223° |
| 2026-04-19 02:45 | 31.58380 | 122.57209 | 24601 ft | 395 kts | 223° |
| 2026-04-19 02:45 | 31.56285 | 122.55124 | 24601 ft | 395 kts | 221° |
| 2026-04-19 02:45 | 31.54170 | 122.53133 | 24601 ft | 395 kts | 220° |
| 2026-04-19 02:45 | 31.51980 | 122.51139 | 24601 ft | 395 kts | 220° |
| 2026-04-19 02:46 | 31.49827 | 122.49182 | 24601 ft | 395 kts | 219° |
| 2026-04-19 02:46 | 31.47645 | 122.47276 | 24502 ft | 390 kts | 218° |
| 2026-04-19 02:46 | 31.45410 | 122.45470 | 23999 ft | 392 kts | 214° |
| 2026-04-19 02:46 | 31.43007 | 122.43868 | 23019 ft | 399 kts | 210° |
| 2026-04-19 02:47 | 31.40550 | 122.42444 | 21737 ft | 404 kts | 208° |
| 2026-04-19 02:47 | 31.38059 | 122.41030 | 20667 ft | 395 kts | 208° |
| 2026-04-19 02:47 | 31.35643 | 122.39665 | 19979 ft | 376 kts | 208° |
| 2026-04-19 02:47 | 31.33329 | 122.38353 | 19325 ft | 360 kts | 208° |
| 2026-04-19 02:48 | 31.31116 | 122.37093 | 18575 ft | 350 kts | 208° |
| 2026-04-19 02:48 | 31.28971 | 122.35868 | 17834 ft | 341 kts | 209° |
| 2026-04-19 02:48 | 31.26880 | 122.34673 | 17113 ft | 332 kts | 209° |
| 2026-04-19 02:48 | 31.24823 | 122.33497 | 16406 ft | 325 kts | 209° |
| 2026-04-19 02:49 | 31.22819 | 122.32352 | 15883 ft | 321 kts | 209° |
| 2026-04-19 02:49 | 31.20827 | 122.31213 | 15502 ft | 316 kts | 209° |
| 2026-04-19 02:49 | 31.18861 | 122.30091 | 15162 ft | 311 kts | 209° |
| 2026-04-19 02:49 | 31.16946 | 122.28999 | 14834 ft | 307 kts | 209° |
| 2026-04-19 02:50 | 31.15031 | 122.27905 | 14516 ft | 302 kts | 209° |
| 2026-04-19 02:50 | 31.13162 | 122.26846 | 14187 ft | 298 kts | 209° |
| 2026-04-19 02:50 | 31.11301 | 122.25792 | 13859 ft | 293 kts | 209° |
| 2026-04-19 02:51 | 31.07691 | 122.23743 | 13233 ft | 285 kts | 209° |
| 2026-04-19 02:51 | 31.05911 | 122.22731 | 13011 ft | 281 kts | 209° |
| 2026-04-19 02:51 | 31.04160 | 122.21735 | 12797 ft | 276 kts | 209° |
| 2026-04-19 02:51 | 31.02437 | 122.20756 | 12601 ft | 271 kts | 209° |
| 2026-04-19 02:52 | 31.00752 | 122.19798 | 12438 ft | 265 kts | 209° |
| 2026-04-19 02:52 | 30.99122 | 122.18872 | 12219 ft | 260 kts | 209° |
| 2026-04-19 02:52 | 30.97501 | 122.17950 | 11964 ft | 257 kts | 209° |
| 2026-04-19 02:52 | 30.95903 | 122.17042 | 11669 ft | 255 kts | 209° |
| 2026-04-19 02:53 | 30.94289 | 122.16125 | 11356 ft | 254 kts | 209° |
| 2026-04-19 02:53 | 30.92719 | 122.15234 | 11048 ft | 253 kts | 209° |
| 2026-04-19 02:53 | 30.91124 | 122.14328 | 10735 ft | 252 kts | 209° |
| 2026-04-19 02:53 | 30.89555 | 122.13438 | 10426 ft | 251 kts | 209° |
| 2026-04-19 02:54 | 30.87982 | 122.12547 | 10113 ft | 250 kts | 209° |
| 2026-04-19 02:54 | 30.86422 | 122.11663 | 9800 ft | 249 kts | 209° |
| 2026-04-19 02:54 | 30.84853 | 122.10774 | 9485 ft | 248 kts | 209° |
| 2026-04-19 02:54 | 30.83317 | 122.09905 | 9163 ft | 247 kts | 208° |
| 2026-04-19 02:55 | 30.81763 | 122.09025 | 8837 ft | 246 kts | 208° |
| 2026-04-19 02:55 | 30.80316 | 122.08012 | 8502 ft | 242 kts | 229° |
| 2026-04-19 02:55 | 30.79478 | 122.06356 | 8162 ft | 236 kts | 255° |
| 2026-04-19 02:55 | 30.79017 | 122.04555 | 7864 ft | 234 kts | 256° |
| 2026-04-19 02:56 | 30.78545 | 122.02745 | 7549 ft | 234 kts | 255° |
| 2026-04-19 02:56 | 30.78060 | 122.00944 | 7245 ft | 233 kts | 255° |
| 2026-04-19 02:56 | 30.77573 | 121.99169 | 6946 ft | 230 kts | 256° |
| 2026-04-19 02:56 | 30.77393 | 121.97369 | 6662 ft | 222 kts | 286° |
| 2026-04-19 02:57 | 30.78193 | 121.95910 | 6355 ft | 218 kts | 324° |
| 2026-04-19 02:57 | 30.79575 | 121.95218 | 6065 ft | 215 kts | 341° |
| 2026-04-19 02:57 | 30.80995 | 121.94734 | 5820 ft | 211 kts | 342° |
| 2026-04-19 02:57 | 30.82409 | 121.94257 | 5559 ft | 207 kts | 342° |
| 2026-04-19 02:58 | 30.83786 | 121.93778 | 5321 ft | 203 kts | 341° |
| 2026-04-19 02:58 | 30.85113 | 121.93302 | 5072 ft | 200 kts | 341° |
| 2026-04-19 02:58 | 30.86449 | 121.92812 | 4796 ft | 198 kts | 340° |
| 2026-04-19 02:58 | 30.87756 | 121.92320 | 4510 ft | 197 kts | 340° |
| 2026-04-19 02:59 | 30.89051 | 121.91827 | 4234 ft | 196 kts | 340° |
| 2026-04-19 02:59 | 30.90317 | 121.91345 | 4068 ft | 178 kts | 340° |
| 2026-04-19 02:59 | 30.91460 | 121.90910 | 3722 ft | 172 kts | 340° |
| 2026-04-19 02:59 | 30.92579 | 121.90483 | 3414 ft | 164 kts | 340° |
| 2026-04-19 03:00 | 30.93643 | 121.90077 | 3073 ft | 159 kts | 340° |
| 2026-04-19 03:00 | 30.94658 | 121.89690 | 2779 ft | 151 kts | 340° |
| 2026-04-19 03:00 | 30.95650 | 121.89311 | 2413 ft | 146 kts | 340° |
| 2026-04-19 03:00 | 30.96578 | 121.88958 | 2132 ft | 137 kts | 340° |
| 2026-04-19 03:01 | 30.97496 | 121.88609 | 2033 ft | 137 kts | 340° |
| 2026-04-19 03:01 | 30.98401 | 121.88267 | 1996 ft | 137 kts | 340° |
| 2026-04-19 03:01 | 30.99307 | 121.87923 | 1993 ft | 137 kts | 340° |
| 2026-04-19 03:01 | 31.00229 | 121.87574 | 1995 ft | 137 kts | 340° |
| 2026-04-19 03:02 | 31.01137 | 121.87231 | 1993 ft | 137 kts | 340° |
| 2026-04-19 03:02 | 31.02053 | 121.86886 | 1993 ft | 137 kts | 340° |
| 2026-04-19 03:02 | 31.02967 | 121.86540 | 1989 ft | 138 kts | 340° |
| 2026-04-19 03:02 | 31.03876 | 121.86199 | 1843 ft | 137 kts | 339° |
| 2026-04-19 03:03 | 31.04795 | 121.85853 | 1656 ft | 137 kts | 339° |
| 2026-04-19 03:03 | 31.05701 | 121.85510 | 1475 ft | 136 kts | 339° |
| 2026-04-19 03:03 | 31.06609 | 121.85167 | 1291 ft | 137 kts | 340° |
| 2026-04-19 03:03 | 31.07524 | 121.84824 | 1109 ft | 137 kts | 339° |
| 2026-04-19 03:04 | 31.08437 | 121.84479 | 924 ft | 136 kts | 339° |
| 2026-04-19 03:04 | 31.09336 | 121.84148 | 737 ft | 136 kts | 341° |
| 2026-04-19 03:04 | 31.10248 | 121.83829 | 553 ft | 136 kts | 339° |
| 2026-04-19 03:04 | 31.11154 | 121.83481 | 365 ft | 136 kts | 339° |
| 2026-04-19 03:05 | 31.12049 | 121.83165 | 187 ft | 135 kts | 333° |
| 2026-04-19 03:05 | 31.12931 | 121.82775 | 44 ft | 130 kts | 338° |
| 2026-04-19 03:05 | 31.13733 | 121.82469 | 22 ft | 103 kts | 343° |
| 2026-04-19 03:05 | 31.14249 | 121.82281 | 21 ft | 52 kts | 342° |
| 2026-04-19 03:06 | 31.14568 | 121.82159 | 18 ft | 30 kts | 339° |
| 2026-04-19 03:06 | 31.14727 | 121.82025 | 18 ft | 22 kts | 320° |
| 2026-04-19 03:06 | 31.14778 | 121.81972 | 18 ft | 0 kts | 316° |
| 2026-04-19 03:06 | 31.14782 | 121.81968 | 18 ft | 4 kts | 314° |
| 2026-04-19 03:07 | 31.14834 | 121.81903 | 18 ft | 17 kts | 314° |
| 2026-04-19 03:07 | 31.14946 | 121.81812 | 18 ft | 19 kts | 336° |
| 2026-04-19 03:07 | 31.14978 | 121.81734 | 18 ft | 12 kts | 254° |
| 2026-04-19 03:07 | 31.14963 | 121.81679 | 19 ft | 0 kts | 252° |
| 2026-04-19 03:10 | 31.14953 | 121.81642 | 20 ft | 10 kts | 252° |
| 2026-04-19 03:10 | 31.14920 | 121.81529 | 21 ft | 16 kts | 252° |
| 2026-04-19 03:11 | 31.14886 | 121.81399 | 21 ft | 16 kts | 261° |
| 2026-04-19 03:11 | 31.14958 | 121.81313 | 21 ft | 16 kts | 341° |
| 2026-04-19 03:11 | 31.15066 | 121.81271 | 21 ft | 16 kts | 342° |
| 2026-04-19 03:11 | 31.15181 | 121.81228 | 20 ft | 18 kts | 342° |
| 2026-04-19 03:12 | 31.15307 | 121.81181 | 18 ft | 19 kts | 344° |
| 2026-04-19 03:12 | 31.15338 | 121.81169 | 18 ft | 0 kts | 340° |
| 2026-04-19 03:12 | 31.15339 | 121.81168 | 18 ft | 1 kts | 340° |
| 2026-04-19 03:12 | 31.15377 | 121.81152 | 18 ft | 12 kts | 342° |
| 2026-04-19 03:13 | 31.15506 | 121.81104 | 19 ft | 22 kts | 341° |
| 2026-04-19 03:13 | 31.15654 | 121.81049 | 18 ft | 20 kts | 341° |
| 2026-04-19 03:13 | 31.15783 | 121.81000 | 18 ft | 18 kts | 338° |
| 2026-04-19 03:13 | 31.15811 | 121.80911 | 20 ft | 12 kts | 252° |
| 2026-04-19 03:14 | 31.15785 | 121.80821 | 21 ft | 11 kts | 250° |
| 2026-04-19 03:14 | 31.15770 | 121.80769 | 21 ft | 0 kts | 252° |
| 2026-04-19 03:15 | 31.15770 | 121.80768 | 21 ft | 0 kts | 252° |
| 2026-04-19 03:17 | 31.15769 | 121.80766 | 21 ft | 1 kts | 252° |
| 2026-04-19 03:17 | 31.15751 | 121.80727 | 21 ft | 8 kts | 225° |
| 2026-04-19 03:17 | 31.15713 | 121.80666 | 21 ft | 10 kts | 251° |
| 2026-04-19 03:18 | 31.15693 | 121.80596 | 21 ft | 0 kts | 252° |